De Soto, WI (54624)

3:03 PM CST on February 20, 2017 (GMT -0600)
De Soto Valley Weather | | Change Station

Elev 761 ft 43.42 °N, 91.19 °W | Updated 6 seconds ago

Rain
Rain
54.2 °F
Feels Like 54.2 °F
N
5.0
Wind Variable Wind from North
Gusts 5.0 mph

Today
High -- | Low -- °F
--% Chance of Precip.
Yesterday
High -- | Low -- °F
Precip. -- in
Pressure 29.82 in
Visibility 2.0 miles
Clouds Mostly Cloudy 1900 ft
Overcast 2900 ft
Dew Point 53 °F
Humidity 96%
Rainfall 0.15 in
Snow Depth Not available.
6:55 AM 5:42 PM
Waning Crescent, 31% visible
METAR KY51 202035Z AUTO 14012G18KT 2SM BKN019 OVC029 12/11 A2982 RMK AO1 P0006 T01150105
Pressure 29.82 in
Visibility 2.0 miles
Clouds Mostly Cloudy 1900 ft
Overcast 2900 ft
Dew Point 53 °F
Humidity 96%
Rainfall 0.15 in
Snow Depth Not available.
6:55 AM 5:42 PM
Waning Crescent, 31% visible
METAR KY51 202035Z AUTO 14012G18KT 2SM BKN019 OVC029 12/11 A2982 RMK AO1 P0006 T01150105

Get Your Daily Forecast Email!

Thanks for signing up!

Be on the lookout for a verification email in your inbox.

You'll start receiving the daily forecast at 8 AM.

×

10-Day Weather Forecast

Almanac

Astronomy

Feb. 20, 2017 Rise Set
Actual Time
Civil Twilight
Nautical Twilight
Astronomical Twilight
Moon
Length of Visible Light
Length of Day
Tomorrow will be .
, % of the Moon is Illuminated

Today's Extremes

State Highs State Lows

Community

WunderPhotos

Upload Photos

1,962,540 photos uploaded!

WunderBlog® & News

Nearby

Air Quality

  Air Quality AQ Index Pollutant
Not available.

Snow Depth

Station Depth Elevation

Earthquake Activity

City Distance Mag. Time & Date
Minimum magnitude displayed is 2.5.

Coastal Water Temperatures

Place Temperature

Stations

Nearby Weather Stations

Station Location Temp. Windchill Dew Point Humidity Wind Precip. Elev Updated Type
                   

Watches & Warnings

There are currently no watches in effect.